Aeroporto :
LOGIN :

Iscrizione | Disclaimer

   EN    FR    IT 

 










Sommario :    VFR   VFR Marginale   IFR   IFR Intensivo   IFR Molto Intensivo
Visibilità : 
Base nubi : 
>= 8 km
>= 3000ft
5 / 8 km
1000 / 3000 ft
1500m / 5 km
500 / 1000 ft
800 / 1500m
200 / 500 ft
< 800m
< 200 ft
Simboli :   Temporali  Nebbia  Neve Forte  Precipitazioni Forti  Vento > 20 kt
SIGMETs :   Varie  Temporali  Ghiacco  Turbolenza  Onda orograficha  Ceneri Vulcaniche






- Altitudine del aeroporto : 423 ft
- Codice IATA : PIS


LFBI - Poitiers

ULTIMO METAR :
  • 201830Z AUTO 32009KT 5000 -DZ BR OVC005 11/10 Q1008 TEMPO RA

METARs OBSOLETI :
  • 201800Z AUTO 32010KT 9000 BKN006 OVC014 11/11 Q1007 TEMPO 3000 RA
  • 201730Z AUTO 33009KT 9999 -DZ BKN006 BKN016 OVC021 11/10 Q1007 TEMPO 3000 RA
  • 201700Z AUTO 34013KT 3800 -RADZ BR OVC006 11/10 Q1006 TEMPO SHRA BKN010 SCT015CB BKN020TCU
  • 201630Z AUTO 34012KT 9999 OVC008 11/10 Q1006 TEMPO 3000 SHRA BKN010 SCT015CB BKN020TCU
  • 201600Z AUTO 34011KT 9999 OVC009 11/10 Q1006 TEMPO 3000 SHRA BKN010 SCT015CB BKN020TCU

TAF AMD TAF LFBI
Valido dal 20 a 17 ore il 21 a 18 ore UTC


201745Z 2017/2118 31007KT 9999 BKN015
TEMPO 2018/2103 3000 RA BKN005 BKN010
BECMG 2021/2023 26005KT
TEMPO 2100/2109 3000 BR OVC003



MetMap, La meteo Aeronautica in un colpo d'occhio ! - Copyright ORBIFLY Dicembre 2007 - Disclaimer

ORBIFLY MET'MAP TEAM :

Programmazione e sviluppo : Alexandra Zaïnal
Concezione e sviluppo : Baudouin d'Aumeries
Co-Programmazione e sviluppo : Marc-Olivier Méhu
Supporto tecnico e logistico : Manuel Goepfert
Aiuto per la traduzione : Arnaldo La Scala

Contatto : metmap@orbifly.com




FONTI E CREDITI :

   NOAA